sensor_id;sensor_type;location;lat;lon;timestamp;P1;durP1;ratioP1;P2;durP2;ratioP2
75986;SDS011;75291;44.670;37.810;2024-03-08T00:00:39;12.00;;;8.15;;
75986;SDS011;75291;44.670;37.810;2024-03-08T00:01:46;12.25;;;8.63;;
75986;SDS011;75291;44.670;37.810;2024-03-08T00:02:50;11.90;;;8.38;;
75986;SDS011;75291;44.670;37.810;2024-03-08T00:03:55;12.63;;;8.82;;
75986;SDS011;75291;44.670;37.810;2024-03-08T00:05:00;11.73;;;7.38;;
75986;SDS011;75291;44.670;37.810;2024-03-08T00:06:04;11.38;;;8.27;;
75986;SDS011;75291;44.670;37.810;2024-03-08T00:07:10;13.35;;;8.88;;
75986;SDS011;75291;44.670;37.810;2024-03-08T00:08:15;12.27;;;7.65;;
75986;SDS011;75291;44.670;37.810;2024-03-08T00:09:20;11.05;;;7.13;;
75986;SDS011;75291;44.670;37.810;2024-03-08T00:10:25;10.40;;;7.40;;
75986;SDS011;75291;44.670;37.810;2024-03-08T00:11:32;12.68;;;7.72;;
75986;SDS011;75291;44.670;37.810;2024-03-08T00:12:41;11.93;;;8.57;;
75986;SDS011;75291;44.670;37.810;2024-03-08T00:13:48;15.23;;;9.35;;
75986;SDS011;75291;44.670;37.810;2024-03-08T00:14:53;13.93;;;8.73;;
75986;SDS011;75291;44.670;37.810;2024-03-08T00:15:58;12.50;;;8.82;;
75986;SDS011;75291;44.670;37.810;2024-03-08T00:17:03;14.88;;;9.35;;
75986;SDS011;75291;44.670;37.810;2024-03-08T00:18:07;13.75;;;9.20;;
75986;SDS011;75291;44.670;37.810;2024-03-08T00:19:11;14.07;;;9.32;;
75986;SDS011;75291;44.670;37.810;2024-03-08T00:20:16;14.77;;;9.63;;
75986;SDS011;75291;44.670;37.810;2024-03-08T00:21:21;15.68;;;9.57;;
75986;SDS011;75291;44.670;37.810;2024-03-08T00:22:26;14.75;;;10.10;;
75986;SDS011;75291;44.670;37.810;2024-03-08T00:23:29;15.50;;;9.77;;
75986;SDS011;75291;44.670;37.810;2024-03-08T00:24:33;15.50;;;9.98;;
75986;SDS011;75291;44.670;37.810;2024-03-08T00:25:39;13.80;;;8.85;;
75986;SDS011;75291;44.670;37.810;2024-03-08T00:26:44;20.27;;;9.60;;
75986;SDS011;75291;44.670;37.810;2024-03-08T00:27:49;16.77;;;9.98;;
75986;SDS011;75291;44.670;37.810;2024-03-08T00:28:53;15.65;;;10.05;;
75986;SDS011;75291;44.670;37.810;2024-03-08T00:29:58;16.92;;;9.75;;
75986;SDS011;75291;44.670;37.810;2024-03-08T00:31:02;13.43;;;8.70;;
75986;SDS011;75291;44.670;37.810;2024-03-08T00:32:07;15.35;;;9.57;;
75986;SDS011;75291;44.670;37.810;2024-03-08T00:33:12;15.88;;;9.00;;
75986;SDS011;75291;44.670;37.810;2024-03-08T00:34:17;15.05;;;9.27;;
75986;SDS011;75291;44.670;37.810;2024-03-08T00:35:21;16.67;;;9.63;;
75986;SDS011;75291;44.670;37.810;2024-03-08T00:36:26;17.00;;;10.07;;
75986;SDS011;75291;44.670;37.810;2024-03-08T00:37:33;16.60;;;10.15;;
75986;SDS011;75291;44.670;37.810;2024-03-08T00:38:41;14.90;;;9.50;;
75986;SDS011;75291;44.670;37.810;2024-03-08T00:39:45;15.32;;;9.75;;
75986;SDS011;75291;44.670;37.810;2024-03-08T00:40:49;16.48;;;9.98;;
75986;SDS011;75291;44.670;37.810;2024-03-08T00:41:53;17.85;;;11.02;;
75986;SDS011;75291;44.670;37.810;2024-03-08T00:42:58;17.23;;;9.88;;
75986;SDS011;75291;44.670;37.810;2024-03-08T00:44:03;16.02;;;9.65;;
75986;SDS011;75291;44.670;37.810;2024-03-08T00:45:08;16.92;;;10.88;;
75986;SDS011;75291;44.670;37.810;2024-03-08T00:46:14;17.75;;;10.30;;
75986;SDS011;75291;44.670;37.810;2024-03-08T00:47:19;17.65;;;11.25;;
75986;SDS011;75291;44.670;37.810;2024-03-08T00:48:24;17.98;;;10.57;;
75986;SDS011;75291;44.670;37.810;2024-03-08T00:49:28;17.75;;;10.85;;
75986;SDS011;75291;44.670;37.810;2024-03-08T00:50:33;17.05;;;10.20;;
75986;SDS011;75291;44.670;37.810;2024-03-08T00:51:38;15.52;;;9.43;;
75986;SDS011;75291;44.670;37.810;2024-03-08T00:52:43;15.85;;;9.02;;
75986;SDS011;75291;44.670;37.810;2024-03-08T00:53:48;14.63;;;9.05;;
75986;SDS011;75291;44.670;37.810;2024-03-08T00:54:52;17.27;;;10.45;;
75986;SDS011;75291;44.670;37.810;2024-03-08T00:55:57;16.55;;;10.05;;
75986;SDS011;75291;44.670;37.810;2024-03-08T00:57:03;14.15;;;9.77;;
75986;SDS011;75291;44.670;37.810;2024-03-08T00:58:08;14.27;;;8.55;;
75986;SDS011;75291;44.670;37.810;2024-03-08T00:59:13;15.43;;;10.35;;
75986;SDS011;75291;44.670;37.810;2024-03-08T01:00:18;18.60;;;11.20;;
75986;SDS011;75291;44.670;37.810;2024-03-08T01:01:25;20.00;;;10.70;;
75986;SDS011;75291;44.670;37.810;2024-03-08T01:02:30;15.88;;;10.20;;
75986;SDS011;75291;44.670;37.810;2024-03-08T01:03:37;15.30;;;9.70;;
75986;SDS011;75291;44.670;37.810;2024-03-08T01:04:42;16.45;;;9.70;;
75986;SDS011;75291;44.670;37.810;2024-03-08T01:05:47;17.58;;;10.20;;
75986;SDS011;75291;44.670;37.810;2024-03-08T01:06:51;18.15;;;11.10;;
75986;SDS011;75291;44.670;37.810;2024-03-08T01:07:55;18.08;;;10.85;;
75986;SDS011;75291;44.670;37.810;2024-03-08T01:09:01;15.05;;;10.02;;
75986;SDS011;75291;44.670;37.810;2024-03-08T01:10:07;18.48;;;10.93;;
75986;SDS011;75291;44.670;37.810;2024-03-08T01:11:13;18.48;;;11.10;;
75986;SDS011;75291;44.670;37.810;2024-03-08T01:12:18;20.10;;;11.25;;
75986;SDS011;75291;44.670;37.810;2024-03-08T01:13:23;19.38;;;11.00;;
75986;SDS011;75291;44.670;37.810;2024-03-08T01:14:28;20.50;;;11.75;;
75986;SDS011;75291;44.670;37.810;2024-03-08T01:15:34;20.50;;;12.02;;
75986;SDS011;75291;44.670;37.810;2024-03-08T01:16:39;20.95;;;12.10;;
75986;SDS011;75291;44.670;37.810;2024-03-08T01:17:44;20.17;;;11.38;;
75986;SDS011;75291;44.670;37.810;2024-03-08T01:18:49;21.08;;;11.85;;
75986;SDS011;75291;44.670;37.810;2024-03-08T01:19:53;20.58;;;11.48;;
75986;SDS011;75291;44.670;37.810;2024-03-08T01:20:59;21.23;;;12.77;;
75986;SDS011;75291;44.670;37.810;2024-03-08T01:22:03;22.85;;;12.55;;
75986;SDS011;75291;44.670;37.810;2024-03-08T01:23:07;24.90;;;13.07;;
75986;SDS011;75291;44.670;37.810;2024-03-08T01:24:12;20.55;;;11.93;;
75986;SDS011;75291;44.670;37.810;2024-03-08T01:25:16;21.35;;;12.45;;
75986;SDS011;75291;44.670;37.810;2024-03-08T01:26:21;21.05;;;12.27;;
75986;SDS011;75291;44.670;37.810;2024-03-08T01:27:25;19.88;;;11.30;;
75986;SDS011;75291;44.670;37.810;2024-03-08T01:28:30;19.58;;;11.52;;
75986;SDS011;75291;44.670;37.810;2024-03-08T01:29:35;23.20;;;12.30;;
75986;SDS011;75291;44.670;37.810;2024-03-08T01:30:39;23.73;;;12.43;;
75986;SDS011;75291;44.670;37.810;2024-03-08T01:31:45;19.90;;;11.90;;
75986;SDS011;75291;44.670;37.810;2024-03-08T01:32:49;21.55;;;12.18;;
75986;SDS011;75291;44.670;37.810;2024-03-08T01:33:54;19.88;;;11.85;;
75986;SDS011;75291;44.670;37.810;2024-03-08T01:34:59;21.83;;;12.32;;
75986;SDS011;75291;44.670;37.810;2024-03-08T01:36:03;21.33;;;11.80;;
75986;SDS011;75291;44.670;37.810;2024-03-08T01:37:08;22.80;;;13.05;;
75986;SDS011;75291;44.670;37.810;2024-03-08T01:38:13;21.60;;;12.55;;
75986;SDS011;75291;44.670;37.810;2024-03-08T01:39:19;21.38;;;12.27;;
75986;SDS011;75291;44.670;37.810;2024-03-08T01:40:26;19.33;;;11.52;;
75986;SDS011;75291;44.670;37.810;2024-03-08T01:41:31;20.42;;;12.30;;
75986;SDS011;75291;44.670;37.810;2024-03-08T01:42:36;24.33;;;13.27;;
75986;SDS011;75291;44.670;37.810;2024-03-08T01:43:40;23.73;;;12.65;;
75986;SDS011;75291;44.670;37.810;2024-03-08T01:44:44;21.83;;;12.45;;
75986;SDS011;75291;44.670;37.810;2024-03-08T01:45:48;20.48;;;11.95;;
75986;SDS011;75291;44.670;37.810;2024-03-08T01:46:53;22.17;;;12.77;;
75986;SDS011;75291;44.670;37.810;2024-03-08T01:47:58;21.80;;;12.13;;
75986;SDS011;75291;44.670;37.810;2024-03-08T01:49:03;24.67;;;13.35;;
75986;SDS011;75291;44.670;37.810;2024-03-08T01:50:09;24.70;;;12.02;;
75986;SDS011;75291;44.670;37.810;2024-03-08T01:51:14;21.77;;;12.98;;
75986;SDS011;75291;44.670;37.810;2024-03-08T01:52:19;23.27;;;13.05;;
75986;SDS011;75291;44.670;37.810;2024-03-08T01:53:26;23.95;;;12.10;;
75986;SDS011;75291;44.670;37.810;2024-03-08T01:54:32;22.23;;;12.57;;
75986;SDS011;75291;44.670;37.810;2024-03-08T01:55:38;19.98;;;11.30;;
75986;SDS011;75291;44.670;37.810;2024-03-08T01:56:44;19.60;;;11.43;;
75986;SDS011;75291;44.670;37.810;2024-03-08T01:57:51;21.63;;;11.80;;
75986;SDS011;75291;44.670;37.810;2024-03-08T01:58:55;20.23;;;11.40;;
75986;SDS011;75291;44.670;37.810;2024-03-08T02:00:00;20.88;;;11.68;;
75986;SDS011;75291;44.670;37.810;2024-03-08T02:01:10;21.17;;;11.90;;
75986;SDS011;75291;44.670;37.810;2024-03-08T02:02:18;22.70;;;12.75;;
75986;SDS011;75291;44.670;37.810;2024-03-08T02:03:24;21.30;;;11.55;;
75986;SDS011;75291;44.670;37.810;2024-03-08T02:04:28;20.35;;;11.82;;
75986;SDS011;75291;44.670;37.810;2024-03-08T02:05:34;19.33;;;10.65;;
75986;SDS011;75291;44.670;37.810;2024-03-08T02:06:40;23.60;;;12.63;;
75986;SDS011;75291;44.670;37.810;2024-03-08T02:07:45;20.92;;;12.40;;
75986;SDS011;75291;44.670;37.810;2024-03-08T02:08:50;23.25;;;12.85;;
75986;SDS011;75291;44.670;37.810;2024-03-08T02:09:55;23.95;;;11.93;;
75986;SDS011;75291;44.670;37.810;2024-03-08T02:10:59;21.88;;;11.82;;
75986;SDS011;75291;44.670;37.810;2024-03-08T02:12:03;23.77;;;13.98;;
75986;SDS011;75291;44.670;37.810;2024-03-08T02:13:12;23.67;;;12.85;;
75986;SDS011;75291;44.670;37.810;2024-03-08T02:14:16;26.05;;;13.23;;
75986;SDS011;75291;44.670;37.810;2024-03-08T02:15:22;24.23;;;14.07;;
75986;SDS011;75291;44.670;37.810;2024-03-08T02:16:26;23.63;;;12.70;;
75986;SDS011;75291;44.670;37.810;2024-03-08T02:17:31;22.83;;;13.10;;
75986;SDS011;75291;44.670;37.810;2024-03-08T02:18:37;23.55;;;13.77;;
75986;SDS011;75291;44.670;37.810;2024-03-08T02:19:44;24.48;;;13.40;;
75986;SDS011;75291;44.670;37.810;2024-03-08T02:20:51;23.38;;;13.02;;
75986;SDS011;75291;44.670;37.810;2024-03-08T02:21:57;24.02;;;12.10;;
75986;SDS011;75291;44.670;37.810;2024-03-08T02:23:03;21.42;;;11.95;;
75986;SDS011;75291;44.670;37.810;2024-03-08T02:24:08;22.00;;;12.32;;
75986;SDS011;75291;44.670;37.810;2024-03-08T02:25:13;25.67;;;13.82;;
75986;SDS011;75291;44.670;37.810;2024-03-08T02:26:19;21.70;;;11.90;;
75986;SDS011;75291;44.670;37.810;2024-03-08T02:27:23;21.42;;;12.68;;
75986;SDS011;75291;44.670;37.810;2024-03-08T02:28:35;22.55;;;12.80;;
75986;SDS011;75291;44.670;37.810;2024-03-08T02:29:40;24.48;;;13.10;;
75986;SDS011;75291;44.670;37.810;2024-03-08T02:30:48;25.90;;;13.38;;
75986;SDS011;75291;44.670;37.810;2024-03-08T02:32:00;20.92;;;12.77;;
75986;SDS011;75291;44.670;37.810;2024-03-08T02:33:05;23.38;;;12.82;;
75986;SDS011;75291;44.670;37.810;2024-03-08T02:34:09;20.98;;;11.60;;
75986;SDS011;75291;44.670;37.810;2024-03-08T02:35:15;23.33;;;12.85;;
75986;SDS011;75291;44.670;37.810;2024-03-08T02:36:20;25.38;;;13.05;;
75986;SDS011;75291;44.670;37.810;2024-03-08T02:37:25;23.17;;;13.10;;
75986;SDS011;75291;44.670;37.810;2024-03-08T02:38:30;24.25;;;13.88;;
75986;SDS011;75291;44.670;37.810;2024-03-08T02:39:35;24.02;;;13.25;;
75986;SDS011;75291;44.670;37.810;2024-03-08T02:40:39;20.90;;;12.00;;
75986;SDS011;75291;44.670;37.810;2024-03-08T02:41:43;22.25;;;12.18;;
75986;SDS011;75291;44.670;37.810;2024-03-08T02:42:47;22.25;;;13.02;;
75986;SDS011;75291;44.670;37.810;2024-03-08T02:43:52;23.40;;;13.70;;
75986;SDS011;75291;44.670;37.810;2024-03-08T02:45:04;19.70;;;11.40;;
75986;SDS011;75291;44.670;37.810;2024-03-08T02:46:09;20.98;;;12.55;;
75986;SDS011;75291;44.670;37.810;2024-03-08T02:47:13;19.73;;;11.75;;
75986;SDS011;75291;44.670;37.810;2024-03-08T02:48:17;17.90;;;11.38;;
75986;SDS011;75291;44.670;37.810;2024-03-08T02:49:21;23.30;;;13.20;;
75986;SDS011;75291;44.670;37.810;2024-03-08T02:50:26;23.88;;;12.75;;
75986;SDS011;75291;44.670;37.810;2024-03-08T02:51:31;22.33;;;12.98;;
75986;SDS011;75291;44.670;37.810;2024-03-08T02:52:39;24.33;;;13.02;;
75986;SDS011;75291;44.670;37.810;2024-03-08T02:53:46;23.73;;;12.65;;
75986;SDS011;75291;44.670;37.810;2024-03-08T02:54:52;20.83;;;12.50;;
75986;SDS011;75291;44.670;37.810;2024-03-08T02:55:56;23.92;;;13.43;;
75986;SDS011;75291;44.670;37.810;2024-03-08T02:57:01;24.30;;;12.50;;
75986;SDS011;75291;44.670;37.810;2024-03-08T02:58:08;23.20;;;12.70;;
75986;SDS011;75291;44.670;37.810;2024-03-08T02:59:13;21.63;;;13.07;;
75986;SDS011;75291;44.670;37.810;2024-03-08T03:00:18;22.20;;;11.95;;
75986;SDS011;75291;44.670;37.810;2024-03-08T03:01:22;22.90;;;12.77;;
75986;SDS011;75291;44.670;37.810;2024-03-08T03:02:27;25.85;;;12.88;;
75986;SDS011;75291;44.670;37.810;2024-03-08T03:03:31;22.92;;;13.02;;
75986;SDS011;75291;44.670;37.810;2024-03-08T03:04:39;21.92;;;12.60;;
75986;SDS011;75291;44.670;37.810;2024-03-08T03:05:44;24.75;;;13.48;;
75986;SDS011;75291;44.670;37.810;2024-03-08T03:06:49;22.02;;;12.55;;
75986;SDS011;75291;44.670;37.810;2024-03-08T03:07:54;23.88;;;13.23;;
75986;SDS011;75291;44.670;37.810;2024-03-08T03:08:59;25.65;;;12.98;;
75986;SDS011;75291;44.670;37.810;2024-03-08T03:10:03;23.35;;;13.82;;
75986;SDS011;75291;44.670;37.810;2024-03-08T03:11:09;25.27;;;13.63;;
75986;SDS011;75291;44.670;37.810;2024-03-08T03:12:14;25.83;;;14.73;;
75986;SDS011;75291;44.670;37.810;2024-03-08T03:13:19;25.27;;;13.40;;
75986;SDS011;75291;44.670;37.810;2024-03-08T03:14:23;23.40;;;12.35;;
75986;SDS011;75291;44.670;37.810;2024-03-08T03:15:27;24.50;;;13.13;;
75986;SDS011;75291;44.670;37.810;2024-03-08T03:16:33;21.98;;;13.32;;
75986;SDS011;75291;44.670;37.810;2024-03-08T03:17:41;26.20;;;14.60;;
75986;SDS011;75291;44.670;37.810;2024-03-08T03:18:50;22.42;;;12.85;;
75986;SDS011;75291;44.670;37.810;2024-03-08T03:19:55;23.55;;;13.20;;
75986;SDS011;75291;44.670;37.810;2024-03-08T03:21:00;20.83;;;11.52;;
75986;SDS011;75291;44.670;37.810;2024-03-08T03:22:09;22.60;;;12.82;;
75986;SDS011;75291;44.670;37.810;2024-03-08T03:23:14;21.23;;;12.20;;
75986;SDS011;75291;44.670;37.810;2024-03-08T03:24:24;19.88;;;11.98;;
75986;SDS011;75291;44.670;37.810;2024-03-08T03:25:28;21.92;;;12.63;;
75986;SDS011;75291;44.670;37.810;2024-03-08T03:26:38;26.58;;;13.50;;
75986;SDS011;75291;44.670;37.810;2024-03-08T03:27:44;21.00;;;11.93;;
75986;SDS011;75291;44.670;37.810;2024-03-08T03:28:50;26.25;;;14.05;;
75986;SDS011;75291;44.670;37.810;2024-03-08T03:29:54;24.52;;;12.82;;
75986;SDS011;75291;44.670;37.810;2024-03-08T03:31:00;24.50;;;13.63;;
75986;SDS011;75291;44.670;37.810;2024-03-08T03:32:06;26.00;;;13.15;;
75986;SDS011;75291;44.670;37.810;2024-03-08T03:33:11;27.77;;;13.80;;
75986;SDS011;75291;44.670;37.810;2024-03-08T03:34:16;24.90;;;13.65;;
75986;SDS011;75291;44.670;37.810;2024-03-08T03:35:20;23.70;;;12.85;;
75986;SDS011;75291;44.670;37.810;2024-03-08T03:36:25;21.75;;;12.80;;
75986;SDS011;75291;44.670;37.810;2024-03-08T03:37:31;22.55;;;12.85;;
75986;SDS011;75291;44.670;37.810;2024-03-08T03:38:35;22.92;;;13.15;;
75986;SDS011;75291;44.670;37.810;2024-03-08T03:39:40;21.63;;;12.70;;
75986;SDS011;75291;44.670;37.810;2024-03-08T03:40:58;22.52;;;13.30;;
75986;SDS011;75291;44.670;37.810;2024-03-08T03:42:09;22.65;;;13.38;;
75986;SDS011;75291;44.670;37.810;2024-03-08T03:43:13;23.85;;;13.40;;
75986;SDS011;75291;44.670;37.810;2024-03-08T03:44:17;23.95;;;12.95;;
75986;SDS011;75291;44.670;37.810;2024-03-08T03:45:21;26.42;;;14.23;;
75986;SDS011;75291;44.670;37.810;2024-03-08T03:46:26;23.27;;;12.50;;
75986;SDS011;75291;44.670;37.810;2024-03-08T03:47:31;24.83;;;13.88;;
75986;SDS011;75291;44.670;37.810;2024-03-08T03:48:36;27.50;;;13.43;;
75986;SDS011;75291;44.670;37.810;2024-03-08T03:49:41;25.45;;;13.30;;
75986;SDS011;75291;44.670;37.810;2024-03-08T03:50:46;23.20;;;13.23;;
75986;SDS011;75291;44.670;37.810;2024-03-08T03:51:51;28.02;;;13.80;;
75986;SDS011;75291;44.670;37.810;2024-03-08T03:52:55;26.45;;;14.07;;
75986;SDS011;75291;44.670;37.810;2024-03-08T03:54:00;29.17;;;14.98;;
75986;SDS011;75291;44.670;37.810;2024-03-08T03:55:08;28.45;;;14.95;;
75986;SDS011;75291;44.670;37.810;2024-03-08T03:56:12;26.52;;;13.95;;
75986;SDS011;75291;44.670;37.810;2024-03-08T03:57:17;27.88;;;13.75;;
75986;SDS011;75291;44.670;37.810;2024-03-08T03:58:23;25.75;;;14.48;;
75986;SDS011;75291;44.670;37.810;2024-03-08T03:59:28;25.23;;;13.50;;
75986;SDS011;75291;44.670;37.810;2024-03-08T04:00:33;26.65;;;13.77;;
75986;SDS011;75291;44.670;37.810;2024-03-08T04:01:41;25.23;;;12.65;;
75986;SDS011;75291;44.670;37.810;2024-03-08T04:02:47;24.75;;;13.00;;
75986;SDS011;75291;44.670;37.810;2024-03-08T04:03:52;25.83;;;13.00;;
75986;SDS011;75291;44.670;37.810;2024-03-08T04:04:57;27.10;;;15.02;;
75986;SDS011;75291;44.670;37.810;2024-03-08T04:06:05;27.45;;;13.70;;
75986;SDS011;75291;44.670;37.810;2024-03-08T04:07:10;25.30;;;11.38;;
75986;SDS011;75291;44.670;37.810;2024-03-08T04:08:15;25.65;;;14.07;;
75986;SDS011;75291;44.670;37.810;2024-03-08T04:09:21;26.02;;;12.80;;
75986;SDS011;75291;44.670;37.810;2024-03-08T04:10:26;25.73;;;14.75;;
75986;SDS011;75291;44.670;37.810;2024-03-08T04:11:30;23.80;;;12.57;;
75986;SDS011;75291;44.670;37.810;2024-03-08T04:12:34;25.48;;;14.18;;
75986;SDS011;75291;44.670;37.810;2024-03-08T04:13:40;25.13;;;14.30;;
75986;SDS011;75291;44.670;37.810;2024-03-08T04:14:44;29.95;;;12.75;;
75986;SDS011;75291;44.670;37.810;2024-03-08T04:15:48;21.17;;;11.98;;
75986;SDS011;75291;44.670;37.810;2024-03-08T04:16:53;19.60;;;9.52;;
75986;SDS011;75291;44.670;37.810;2024-03-08T04:17:58;23.23;;;11.95;;
75986;SDS011;75291;44.670;37.810;2024-03-08T04:19:04;21.63;;;11.82;;
75986;SDS011;75291;44.670;37.810;2024-03-08T04:20:10;21.40;;;11.93;;
75986;SDS011;75291;44.670;37.810;2024-03-08T04:21:17;25.00;;;13.18;;
75986;SDS011;75291;44.670;37.810;2024-03-08T04:22:23;23.92;;;12.73;;
75986;SDS011;75291;44.670;37.810;2024-03-08T04:23:27;24.92;;;13.52;;
75986;SDS011;75291;44.670;37.810;2024-03-08T04:24:33;25.35;;;13.80;;
75986;SDS011;75291;44.670;37.810;2024-03-08T04:25:38;22.63;;;12.27;;
75986;SDS011;75291;44.670;37.810;2024-03-08T04:26:42;22.73;;;12.65;;
75986;SDS011;75291;44.670;37.810;2024-03-08T04:27:48;26.50;;;13.18;;
75986;SDS011;75291;44.670;37.810;2024-03-08T04:28:54;25.10;;;13.82;;
75986;SDS011;75291;44.670;37.810;2024-03-08T04:30:01;24.20;;;12.90;;
75986;SDS011;75291;44.670;37.810;2024-03-08T04:31:10;23.88;;;12.63;;
75986;SDS011;75291;44.670;37.810;2024-03-08T04:32:15;23.77;;;12.75;;
75986;SDS011;75291;44.670;37.810;2024-03-08T04:33:19;25.63;;;12.80;;
75986;SDS011;75291;44.670;37.810;2024-03-08T04:34:26;26.55;;;13.60;;
75986;SDS011;75291;44.670;37.810;2024-03-08T04:35:32;26.63;;;13.23;;
75986;SDS011;75291;44.670;37.810;2024-03-08T04:36:37;24.88;;;13.32;;
75986;SDS011;75291;44.670;37.810;2024-03-08T04:37:41;23.52;;;12.25;;
75986;SDS011;75291;44.670;37.810;2024-03-08T04:38:47;23.15;;;12.63;;
75986;SDS011;75291;44.670;37.810;2024-03-08T04:39:51;26.88;;;13.18;;
75986;SDS011;75291;44.670;37.810;2024-03-08T04:40:55;28.60;;;14.48;;
75986;SDS011;75291;44.670;37.810;2024-03-08T04:42:02;28.42;;;14.52;;
75986;SDS011;75291;44.670;37.810;2024-03-08T04:43:07;24.67;;;13.35;;
75986;SDS011;75291;44.670;37.810;2024-03-08T04:44:14;28.02;;;14.13;;
75986;SDS011;75291;44.670;37.810;2024-03-08T04:45:18;24.17;;;13.65;;
75986;SDS011;75291;44.670;37.810;2024-03-08T04:46:23;31.08;;;14.48;;
75986;SDS011;75291;44.670;37.810;2024-03-08T04:47:29;26.33;;;13.57;;
75986;SDS011;75291;44.670;37.810;2024-03-08T04:48:34;25.95;;;13.85;;
75986;SDS011;75291;44.670;37.810;2024-03-08T04:49:40;25.95;;;13.80;;
75986;SDS011;75291;44.670;37.810;2024-03-08T04:50:45;25.40;;;13.90;;
75986;SDS011;75291;44.670;37.810;2024-03-08T04:51:49;28.23;;;14.98;;
75986;SDS011;75291;44.670;37.810;2024-03-08T04:52:57;28.38;;;14.25;;
75986;SDS011;75291;44.670;37.810;2024-03-08T04:54:02;28.80;;;14.18;;
75986;SDS011;75291;44.670;37.810;2024-03-08T04:55:09;29.05;;;14.60;;
75986;SDS011;75291;44.670;37.810;2024-03-08T04:56:14;29.35;;;14.88;;
75986;SDS011;75291;44.670;37.810;2024-03-08T04:57:18;27.25;;;14.32;;
75986;SDS011;75291;44.670;37.810;2024-03-08T04:58:23;26.23;;;13.45;;
75986;SDS011;75291;44.670;37.810;2024-03-08T04:59:28;28.15;;;14.07;;
75986;SDS011;75291;44.670;37.810;2024-03-08T05:00:34;23.70;;;13.40;;
75986;SDS011;75291;44.670;37.810;2024-03-08T05:01:40;24.48;;;12.63;;
75986;SDS011;75291;44.670;37.810;2024-03-08T05:02:44;27.63;;;13.82;;
75986;SDS011;75291;44.670;37.810;2024-03-08T05:03:49;25.38;;;13.77;;
75986;SDS011;75291;44.670;37.810;2024-03-08T05:04:54;31.20;;;14.18;;
75986;SDS011;75291;44.670;37.810;2024-03-08T05:06:00;26.00;;;14.05;;
75986;SDS011;75291;44.670;37.810;2024-03-08T05:07:06;28.05;;;13.35;;
75986;SDS011;75291;44.670;37.810;2024-03-08T05:08:14;24.95;;;12.82;;
75986;SDS011;75291;44.670;37.810;2024-03-08T05:09:22;28.85;;;13.45;;
75986;SDS011;75291;44.670;37.810;2024-03-08T05:10:32;22.35;;;12.77;;
75986;SDS011;75291;44.670;37.810;2024-03-08T05:11:37;26.13;;;12.80;;
75986;SDS011;75291;44.670;37.810;2024-03-08T05:12:41;24.77;;;12.82;;
75986;SDS011;75291;44.670;37.810;2024-03-08T05:13:45;24.98;;;13.05;;
75986;SDS011;75291;44.670;37.810;2024-03-08T05:14:49;24.58;;;13.50;;
75986;SDS011;75291;44.670;37.810;2024-03-08T05:15:53;25.33;;;13.07;;
75986;SDS011;75291;44.670;37.810;2024-03-08T05:16:58;24.38;;;13.43;;
75986;SDS011;75291;44.670;37.810;2024-03-08T05:18:05;24.85;;;13.55;;
75986;SDS011;75291;44.670;37.810;2024-03-08T05:19:10;24.77;;;12.73;;
75986;SDS011;75291;44.670;37.810;2024-03-08T05:20:15;26.63;;;13.27;;
75986;SDS011;75291;44.670;37.810;2024-03-08T05:21:21;24.42;;;13.80;;
75986;SDS011;75291;44.670;37.810;2024-03-08T05:22:25;26.40;;;13.40;;
75986;SDS011;75291;44.670;37.810;2024-03-08T05:23:30;25.15;;;14.82;;
75986;SDS011;75291;44.670;37.810;2024-03-08T05:24:34;31.85;;;14.02;;
75986;SDS011;75291;44.670;37.810;2024-03-08T05:25:40;24.80;;;12.93;;
75986;SDS011;75291;44.670;37.810;2024-03-08T05:26:45;23.13;;;13.27;;
75986;SDS011;75291;44.670;37.810;2024-03-08T05:27:52;24.25;;;12.90;;
75986;SDS011;75291;44.670;37.810;2024-03-08T05:29:07;26.63;;;12.70;;
75986;SDS011;75291;44.670;37.810;2024-03-08T05:30:19;23.50;;;13.48;;
75986;SDS011;75291;44.670;37.810;2024-03-08T05:31:48;27.08;;;13.20;;
75986;SDS011;75291;44.670;37.810;2024-03-08T05:32:54;25.98;;;12.63;;
75986;SDS011;75291;44.670;37.810;2024-03-08T05:34:01;24.60;;;12.93;;
75986;SDS011;75291;44.670;37.810;2024-03-08T05:35:05;25.98;;;14.35;;
75986;SDS011;75291;44.670;37.810;2024-03-08T05:36:11;26.95;;;13.80;;
75986;SDS011;75291;44.670;37.810;2024-03-08T05:37:15;24.35;;;13.15;;
75986;SDS011;75291;44.670;37.810;2024-03-08T05:38:19;24.67;;;13.20;;
75986;SDS011;75291;44.670;37.810;2024-03-08T05:39:24;25.60;;;13.25;;
75986;SDS011;75291;44.670;37.810;2024-03-08T05:40:29;24.17;;;13.25;;
75986;SDS011;75291;44.670;37.810;2024-03-08T05:41:37;25.73;;;14.05;;
75986;SDS011;75291;44.670;37.810;2024-03-08T05:42:43;26.88;;;13.95;;
75986;SDS011;75291;44.670;37.810;2024-03-08T05:43:48;23.95;;;12.90;;
75986;SDS011;75291;44.670;37.810;2024-03-08T05:44:53;26.35;;;13.10;;
75986;SDS011;75291;44.670;37.810;2024-03-08T05:46:01;26.60;;;13.35;;
75986;SDS011;75291;44.670;37.810;2024-03-08T05:47:08;24.02;;;13.85;;
75986;SDS011;75291;44.670;37.810;2024-03-08T05:48:13;24.77;;;13.00;;
75986;SDS011;75291;44.670;37.810;2024-03-08T05:49:18;26.52;;;14.07;;
75986;SDS011;75291;44.670;37.810;2024-03-08T05:50:23;26.65;;;12.05;;
75986;SDS011;75291;44.670;37.810;2024-03-08T05:51:28;27.17;;;13.02;;
75986;SDS011;75291;44.670;37.810;2024-03-08T05:52:33;28.55;;;13.48;;
75986;SDS011;75291;44.670;37.810;2024-03-08T05:53:38;26.95;;;13.93;;
75986;SDS011;75291;44.670;37.810;2024-03-08T05:54:43;27.92;;;15.45;;
75986;SDS011;75291;44.670;37.810;2024-03-08T05:55:50;25.30;;;13.95;;
75986;SDS011;75291;44.670;37.810;2024-03-08T05:56:54;22.30;;;13.43;;
75986;SDS011;75291;44.670;37.810;2024-03-08T05:57:59;23.80;;;12.52;;
75986;SDS011;75291;44.670;37.810;2024-03-08T05:59:04;22.95;;;13.52;;
75986;SDS011;75291;44.670;37.810;2024-03-08T06:00:10;26.58;;;13.63;;
75986;SDS011;75291;44.670;37.810;2024-03-08T06:01:15;26.45;;;12.15;;
75986;SDS011;75291;44.670;37.810;2024-03-08T06:02:20;26.00;;;12.65;;
75986;SDS011;75291;44.670;37.810;2024-03-08T06:03:25;24.40;;;12.25;;
75986;SDS011;75291;44.670;37.810;2024-03-08T06:04:30;26.13;;;13.45;;
75986;SDS011;75291;44.670;37.810;2024-03-08T06:05:34;23.73;;;13.25;;
75986;SDS011;75291;44.670;37.810;2024-03-08T06:06:38;27.60;;;13.80;;
75986;SDS011;75291;44.670;37.810;2024-03-08T06:07:43;22.20;;;11.38;;
75986;SDS011;75291;44.670;37.810;2024-03-08T06:08:48;23.95;;;11.95;;
75986;SDS011;75291;44.670;37.810;2024-03-08T06:09:53;26.83;;;12.35;;
75986;SDS011;75291;44.670;37.810;2024-03-08T06:10:58;22.63;;;12.32;;
75986;SDS011;75291;44.670;37.810;2024-03-08T06:12:03;26.95;;;13.38;;
75986;SDS011;75291;44.670;37.810;2024-03-08T06:13:11;24.15;;;13.25;;
75986;SDS011;75291;44.670;37.810;2024-03-08T06:14:15;27.75;;;12.65;;
75986;SDS011;75291;44.670;37.810;2024-03-08T06:15:22;24.00;;;12.20;;
75986;SDS011;75291;44.670;37.810;2024-03-08T06:16:28;21.60;;;12.00;;
75986;SDS011;75291;44.670;37.810;2024-03-08T06:17:32;26.70;;;13.48;;
75986;SDS011;75291;44.670;37.810;2024-03-08T06:18:37;23.88;;;11.85;;